Time;durP1;ratioP1;P1;durP2;ratioP2;P2;SDS_P1;SDS_P2;PMS_P1;PMS_P2;Temp;Humidity;BMP_temperature;BMP_pressure;BME280_temperature;BME280_humidity;BME280_pressure;Samples;Min_cycle;Max_cycle;Signal;HPM_P1;HPM_P2
2023/07/20 00:01:26;;;;;;;5.90;5.03;;;;;;;28.61;53.71;100782.00;5027729;28;20029;-83
2023/07/20 00:03:54;;;;;;;5.10;4.60;;;;;;;28.50;53.88;100759.84;5021847;28;20037;-84
2023/07/20 00:06:24;;;;;;;5.43;4.70;;;;;;;28.59;53.87;100765.03;5023400;28;20514;-83
2023/07/20 00:08:51;;;;;;;4.78;4.28;;;;;;;28.70;54.11;100784.53;5032285;28;20033;-84
2023/07/20 00:11:17;;;;;;;5.72;4.90;;;;;;;28.70;54.12;100787.22;5018895;28;20212;-83
2023/07/20 00:13:43;;;;;;;5.10;4.32;;;;;;;28.70;53.75;100789.00;5033280;28;20055;-84
2023/07/20 00:16:08;;;;;;;6.90;5.05;;;;;;;28.54;53.89;100764.25;5003637;28;20041;-83
2023/07/20 00:18:34;;;;;;;4.88;4.47;;;;;;;28.62;54.10;100781.09;5025579;28;20095;-83
2023/07/20 00:21:00;;;;;;;5.20;4.70;;;;;;;28.68;53.96;100786.34;5020843;28;20514;-84
2023/07/20 00:23:26;;;;;;;5.97;4.78;;;;;;;28.62;54.13;100779.28;5022534;28;20040;-84
2023/07/20 00:25:52;;;;;;;6.07;4.72;;;;;;;28.65;54.01;100782.84;5028198;28;20041;-83
2023/07/20 00:28:17;;;;;;;5.88;4.57;;;;;;;28.67;54.04;100787.25;5031114;28;20203;-83
2023/07/20 00:30:43;;;;;;;4.88;4.30;;;;;;;28.58;54.15;100777.59;5032170;28;20076;-83
2023/07/20 00:33:12;;;;;;;5.07;4.57;;;;;;;28.67;53.74;100799.81;5029725;28;20032;-83
2023/07/20 00:35:41;;;;;;;5.28;4.72;;;;;;;28.55;54.19;100772.25;5033766;28;20028;-84
2023/07/20 00:38:06;;;;;;;5.63;5.05;;;;;;;28.45;53.82;100754.56;5030904;28;20044;-84
2023/07/20 00:40:39;;;;;;;5.47;4.85;;;;;;;28.67;54.21;100799.81;5029924;28;20029;-83
2023/07/20 00:43:04;;;;;;;4.97;4.57;;;;;;;28.46;53.93;100760.78;5032736;28;20033;-83
2023/07/20 00:45:31;;;;;;;6.05;4.97;;;;;;;28.67;53.94;100802.50;5030315;28;20083;-83
2023/07/20 00:47:57;;;;;;;5.85;4.65;;;;;;;28.65;53.91;100805.22;5052139;28;20032;-83
2023/07/20 00:50:24;;;;;;;5.63;4.40;;;;;;;28.25;53.85;100730.75;5050684;28;20047;-82
2023/07/20 00:52:50;;;;;;;4.88;4.40;;;;;;;28.66;54.06;100798.03;5023682;28;20029;-84
2023/07/20 00:55:15;;;;;;;6.53;5.00;;;;;;;28.65;54.20;100810.59;5021875;28;20036;-84
2023/07/20 00:57:41;;;;;;;5.22;4.70;;;;;;;28.65;54.26;100810.59;5050791;28;20029;-83
2023/07/20 01:00:07;;;;;;;5.20;4.57;;;;;;;28.60;54.18;100794.56;5033643;28;20037;-82
2023/07/20 01:02:33;;;;;;;5.43;4.93;;;;;;;28.57;54.08;100788.34;5050294;28;20063;-82
2023/07/20 01:04:59;;;;;;;6.28;4.80;;;;;;;28.58;53.98;100792.84;5032886;28;20490;-80
2023/07/20 01:07:39;;;;;;;5.53;4.72;;;;;;;28.62;54.13;100790.03;5015372;28;20490;-83
2023/07/20 01:10:13;;;;;;;5.22;4.72;;;;;;;28.60;54.17;100788.31;5026340;28;20022;-82
2023/07/20 01:12:43;;;;;;;5.82;5.20;;;;;;;28.61;54.22;100790.94;5049501;28;20028;-82
2023/07/20 01:15:09;;;;;;;5.32;4.80;;;;;;;28.62;54.00;100792.72;5051012;28;20032;-83
2023/07/20 01:17:35;;;;;;;6.22;4.68;;;;;;;28.56;53.97;100776.72;5051156;28;20091;-83
2023/07/20 01:20:01;;;;;;;5.30;4.80;;;;;;;28.61;54.20;100800.81;5043433;28;20033;-84
2023/07/20 01:22:45;;;;;;;6.47;5.20;;;;;;;28.61;54.22;100795.44;5029482;28;20036;-84
2023/07/20 01:25:34;;;;;;;5.90;5.10;;;;;;;28.43;54.22;100759.94;5047207;28;20030;-83
2023/07/20 01:28:21;;;;;;;5.50;4.82;;;;;;;28.59;53.99;100798.16;5044499;28;20103;-84
2023/07/20 01:30:55;;;;;;;6.05;4.88;;;;;;;28.59;53.95;100797.28;5045641;28;20031;-85
2023/07/20 01:33:21;;;;;;;6.45;5.03;;;;;;;28.59;54.03;100794.59;5051527;28;20033;-84
2023/07/20 01:35:53;;;;;;;6.47;4.85;;;;;;;28.53;54.24;100776.81;5046062;28;20122;-85
2023/07/20 01:38:19;;;;;;;6.53;5.10;;;;;;;28.57;53.91;100807.16;5051144;28;20032;-83
2023/07/20 01:40:45;;;;;;;5.50;5.00;;;;;;;28.50;54.03;100868.19;5016270;28;20071;-83
2023/07/20 01:43:11;;;;;;;5.15;4.65;;;;;;;28.52;54.21;100920.09;5024765;28;20029;-85
2023/07/20 01:45:37;;;;;;;7.07;4.78;;;;;;;28.47;54.18;100924.66;5047997;28;20115;-84
2023/07/20 01:48:03;;;;;;;5.45;4.95;;;;;;;28.50;54.21;100921.94;5024866;28;20553;-83
2023/07/20 01:50:29;;;;;;;6.72;5.40;;;;;;;28.49;54.26;100896.00;5042314;28;20460;-84
2023/07/20 01:52:55;;;;;;;5.30;4.80;;;;;;;28.45;54.21;100893.34;5051146;28;20108;-81
2023/07/20 01:55:20;;;;;;;6.35;5.20;;;;;;;28.49;54.34;100911.19;5025701;28;20096;-85
2023/07/20 01:57:46;;;;;;;6.45;5.30;;;;;;;28.49;54.22;100897.78;5050369;28;20029;-82
2023/07/20 02:00:12;;;;;;;5.43;4.93;;;;;;;28.29;54.15;100852.44;5049210;28;20033;-84
2023/07/20 02:02:38;;;;;;;6.68;4.93;;;;;;;28.51;54.22;100877.13;5049887;28;20036;-84
2023/07/20 02:05:03;;;;;;;5.40;4.70;;;;;;;28.50;54.11;100880.75;5050665;28;20100;-84
2023/07/20 02:07:29;;;;;;;5.53;5.00;;;;;;;28.50;54.03;100864.63;5032359;28;20029;-85
2023/07/20 02:09:55;;;;;;;5.78;5.20;;;;;;;28.49;54.34;100862.84;5010579;28;20025;-85
2023/07/20 02:12:20;;;;;;;5.78;4.85;;;;;;;28.49;54.11;100863.75;5042346;28;20021;-84
2023/07/20 02:14:46;;;;;;;5.60;5.03;;;;;;;28.47;54.13;100862.88;5046661;28;20063;-84
2023/07/20 02:17:12;;;;;;;5.93;5.35;;;;;;;28.47;54.48;100856.56;5051172;28;20033;-83
2023/07/20 02:19:38;;;;;;;5.95;4.57;;;;;;;28.46;54.26;100847.66;5049651;28;20025;-83
2023/07/20 02:22:04;;;;;;;5.30;4.80;;;;;;;28.46;54.16;100836.91;5051047;28;20059;-84
2023/07/20 02:24:29;;;;;;;5.50;4.93;;;;;;;28.48;54.35;100836.88;5050045;28;20452;-85
2023/07/20 02:26:55;;;;;;;5.78;4.90;;;;;;;28.43;54.06;100812.78;5016681;28;20052;-83
2023/07/20 02:29:21;;;;;;;5.22;4.72;;;;;;;28.47;54.27;100827.94;5016785;28;20021;-84
2023/07/20 02:31:46;;;;;;;5.47;4.97;;;;;;;28.12;54.15;100758.78;5033149;28;20032;-83
2023/07/20 02:34:13;;;;;;;5.43;4.93;;;;;;;28.39;54.18;100808.41;5049743;28;20045;-83
2023/07/20 02:36:39;;;;;;;6.82;5.30;;;;;;;28.41;54.29;100807.44;5047948;28;20087;-82
2023/07/20 02:39:04;;;;;;;6.03;5.03;;;;;;;28.40;54.37;100805.66;5050461;28;20443;-83
2023/07/20 02:41:32;;;;;;;5.35;4.85;;;;;;;28.46;54.25;100815.41;5049397;28;20033;-83
2023/07/20 02:43:58;;;;;;;5.30;4.72;;;;;;;28.39;54.00;100803.91;5050472;28;20502;-83
2023/07/20 02:46:23;;;;;;;5.30;4.65;;;;;;;28.44;54.00;100806.50;5049646;28;20025;-83
2023/07/20 02:48:49;;;;;;;5.50;4.80;;;;;;;28.45;54.06;100808.28;5050172;28;20478;-83
2023/07/20 02:51:14;;;;;;;5.65;5.07;;;;;;;28.34;54.17;100783.41;5050007;28;20223;-84
2023/07/20 02:53:41;;;;;;;5.85;5.25;;;;;;;28.46;53.76;100790.34;5031698;28;20486;-84
2023/07/20 02:56:07;;;;;;;5.57;4.95;;;;;;;28.45;54.00;100791.25;5050547;28;20025;-84
2023/07/20 02:58:36;;;;;;;5.85;4.70;;;;;;;28.44;53.88;100776.94;5049050;28;20025;-81
2023/07/20 03:01:03;;;;;;;5.10;4.60;;;;;;;28.43;54.10;100761.75;5025410;28;20451;-85
2023/07/20 03:03:28;;;;;;;6.38;5.00;;;;;;;28.41;53.87;100767.16;5049699;28;20082;-84
2023/07/20 03:05:55;;;;;;;5.53;4.82;;;;;;;28.42;54.13;100768.03;5044412;28;20037;-85
2023/07/20 03:08:21;;;;;;;5.45;4.90;;;;;;;28.38;54.16;100756.44;5049205;28;20087;-85
2023/07/20 03:10:47;;;;;;;6.10;5.07;;;;;;;28.31;54.37;100743.19;5021585;28;20497;-84
2023/07/20 03:13:14;;;;;;;5.20;4.70;;;;;;;28.37;54.11;100749.31;5045982;28;20056;-85
2023/07/20 03:15:39;;;;;;;5.00;4.50;;;;;;;28.41;54.16;100756.41;5048867;28;20029;-84
2023/07/20 03:18:05;;;;;;;5.38;4.90;;;;;;;28.41;53.97;100742.97;5049724;28;20025;-82
2023/07/20 03:20:31;;;;;;;5.28;4.78;;;;;;;28.40;53.92;100737.63;5044255;28;20029;-85
2023/07/20 03:22:57;;;;;;;5.32;4.82;;;;;;;28.35;54.18;100729.66;5049289;28;20033;-85
2023/07/20 03:25:22;;;;;;;6.40;5.55;;;;;;;28.29;54.00;100718.16;5044552;28;20441;-85
2023/07/20 03:27:48;;;;;;;6.20;5.00;;;;;;;28.39;53.83;100736.75;5048739;28;20505;-84
2023/07/20 03:30:14;;;;;;;5.78;4.97;;;;;;;28.38;54.19;100734.09;5045426;28;20078;-85
2023/07/20 03:32:40;;;;;;;5.80;4.65;;;;;;;28.34;54.25;100714.47;5050003;28;20116;-83
2023/07/20 03:35:06;;;;;;;5.53;5.03;;;;;;;28.35;54.17;100708.19;5027332;28;20057;-81
2023/07/20 03:37:31;;;;;;;5.22;4.72;;;;;;;28.32;54.08;100686.78;5050657;28;20029;-80
2023/07/20 03:39:57;;;;;;;5.30;4.80;;;;;;;28.26;54.14;100661.81;5040686;28;20038;-80
2023/07/20 03:42:23;;;;;;;5.45;4.95;;;;;;;28.37;54.09;100668.75;5049859;28;20082;-81
2023/07/20 03:44:48;;;;;;;4.85;4.45;;;;;;;28.25;54.24;100641.25;5046209;28;20037;-80
2023/07/20 03:47:14;;;;;;;5.43;4.93;;;;;;;28.29;53.94;100624.16;5052542;28;20028;-81
2023/07/20 03:49:40;;;;;;;6.10;4.72;;;;;;;28.38;54.15;100637.38;5051968;28;20191;-81
2023/07/20 03:52:05;;;;;;;5.90;5.30;;;;;;;28.36;53.99;100624.00;5052855;28;20559;-81
2023/07/20 03:54:31;;;;;;;8.43;5.50;;;;;;;28.34;54.28;100617.78;5047875;28;20026;-81
2023/07/20 03:56:58;;;;;;;5.70;4.95;;;;;;;28.37;53.97;100628.44;5049214;28;20039;-81
2023/07/20 03:59:23;;;;;;;6.13;5.53;;;;;;;28.33;53.99;100624.06;5053006;28;20036;-81
2023/07/20 04:01:49;;;;;;;5.75;5.00;;;;;;;28.37;54.08;100624.88;5050215;28;20037;-81
2023/07/20 04:04:16;;;;;;;6.18;4.95;;;;;;;28.31;54.11;100625.03;5053168;28;20029;-81
2023/07/20 04:06:44;;;;;;;5.32;4.63;;;;;;;28.36;54.09;100652.66;5049068;28;20127;-81
2023/07/20 04:09:11;;;;;;;6.00;5.18;;;;;;;28.29;54.22;100659.09;5052078;28;20029;-81
2023/07/20 04:11:36;;;;;;;6.40;5.13;;;;;;;28.32;54.30;100670.66;5026828;28;20391;-79
2023/07/20 04:14:02;;;;;;;6.03;4.82;;;;;;;28.35;54.06;100662.50;5051937;28;20033;-79
2023/07/20 04:16:28;;;;;;;5.82;5.22;;;;;;;28.32;54.25;100657.22;5049587;28;20099;-78
2023/07/20 04:18:56;;;;;;;5.35;4.85;;;;;;;28.30;54.44;100652.78;5051807;28;20037;-79
2023/07/20 04:21:22;;;;;;;6.13;5.55;;;;;;;28.31;54.62;100662.63;5047830;28;20036;-80
2023/07/20 04:23:48;;;;;;;6.00;5.40;;;;;;;28.21;54.75;100645.81;5050629;28;20037;-79
2023/07/20 04:26:14;;;;;;;6.30;5.70;;;;;;;28.32;54.91;100685.84;5046875;28;20029;-81
2023/07/20 04:28:42;;;;;;;6.10;5.50;;;;;;;28.30;55.10;100699.34;5032135;28;20090;-81
2023/07/20 04:31:14;;;;;;;7.35;5.93;;;;;;;28.34;54.91;100706.41;5050884;28;20501;-81
2023/07/20 04:33:40;;;;;;;5.97;5.47;;;;;;;28.24;55.42;100688.72;5046717;28;20049;-79
2023/07/20 04:36:06;;;;;;;6.65;5.53;;;;;;;28.21;55.48;100697.72;5028819;28;20040;-81
2023/07/20 04:38:31;;;;;;;6.75;6.15;;;;;;;28.27;55.73;100712.81;5005622;28;20037;-80
2023/07/20 04:40:57;;;;;;;6.72;6.00;;;;;;;28.24;55.66;100707.53;5027462;28;20038;-80
2023/07/20 04:43:22;;;;;;;8.55;6.13;;;;;;;28.35;55.67;100724.28;5022429;28;20095;-80
2023/07/20 04:45:48;;;;;;;6.57;5.85;;;;;;;28.31;55.59;100727.94;5030153;28;20388;-80
2023/07/20 04:48:15;;;;;;;7.13;5.90;;;;;;;28.22;55.44;100701.28;5023794;28;20026;-80
2023/07/20 04:50:42;;;;;;;8.60;5.95;;;;;;;28.35;55.30;100718.91;5020864;28;20025;-78
2023/07/20 04:53:10;;;;;;;6.68;5.97;;;;;;;28.20;55.19;100698.63;5025101;28;20033;-81
2023/07/20 04:55:36;;;;;;;6.97;6.05;;;;;;;28.15;55.21;100705.91;5027136;28;20061;-80
2023/07/20 04:58:03;;;;;;;6.85;6.15;;;;;;;28.32;55.13;100727.06;5022676;28;20399;-81
2023/07/20 05:00:29;;;;;;;7.38;5.63;;;;;;;28.29;55.35;100715.47;5030947;28;20701;-81
2023/07/20 05:02:55;;;;;;;6.25;5.68;;;;;;;28.35;54.99;100736.84;4995212;28;20128;-82
2023/07/20 05:05:21;;;;;;;5.93;5.32;;;;;;;28.31;54.91;100737.81;5011627;28;20029;-82
2023/07/20 05:07:47;;;;;;;5.75;5.25;;;;;;;28.32;54.88;100735.09;5028778;28;20030;-81
2023/07/20 05:10:12;;;;;;;6.03;5.43;;;;;;;28.31;54.57;100736.00;5019189;28;20021;-82
2023/07/20 05:12:38;;;;;;;7.20;6.20;;;;;;;28.30;56.05;100730.66;5022761;28;20029;-82
2023/07/20 05:15:04;;;;;;;13.10;7.55;;;;;;;28.06;57.19;100715.94;5010450;28;20114;-83
2023/07/20 05:17:30;;;;;;;7.70;6.43;;;;;;;28.15;56.86;100708.59;5029505;28;20530;-81
2023/07/20 05:19:55;;;;;;;6.85;6.13;;;;;;;28.18;56.91;100713.88;5026476;28;20032;-84
2023/07/20 05:22:21;;;;;;;6.85;6.15;;;;;;;28.05;57.20;100688.19;5020923;28;20036;-82
2023/07/20 05:24:46;;;;;;;6.65;6.05;;;;;;;28.28;56.92;100722.66;5031021;28;20037;-81
2023/07/20 05:27:12;;;;;;;7.75;6.40;;;;;;;28.28;57.27;100722.66;5027714;28;20112;-81
2023/07/20 05:29:43;;;;;;;8.77;6.13;;;;;;;28.29;57.19;100718.16;5006952;28;20457;-80
2023/07/20 05:32:09;;;;;;;11.15;6.70;;;;;;;28.29;56.97;100721.72;5029862;28;20029;-81
2023/07/20 05:34:35;;;;;;;7.43;6.63;;;;;;;28.28;56.96;100725.34;5043850;28;20041;-82
2023/07/20 05:37:10;;;;;;;7.05;6.35;;;;;;;28.22;57.06;100712.03;5050256;28;20413;-81
2023/07/20 05:39:36;;;;;;;7.85;6.45;;;;;;;28.27;57.09;100723.56;5051056;28;20024;-82
2023/07/20 05:42:01;;;;;;;7.32;6.07;;;;;;;28.25;57.06;100725.38;5029844;28;20034;-83
2023/07/20 05:44:27;;;;;;;9.05;7.00;;;;;;;28.25;56.68;100713.78;5050373;28;20605;-83
2023/07/20 05:46:53;;;;;;;7.70;6.93;;;;;;;28.23;56.65;100725.41;5029291;28;20032;-83
2023/07/20 05:49:21;;;;;;;7.45;6.65;;;;;;;28.27;56.54;100733.41;5009410;28;20036;-81
2023/07/20 05:51:47;;;;;;;7.75;6.95;;;;;;;28.25;56.73;100728.06;5045935;28;20035;-81
2023/07/20 05:54:13;;;;;;;7.45;6.63;;;;;;;28.25;56.48;100724.50;5050777;28;20052;-83
2023/07/20 05:56:39;;;;;;;7.85;7.05;;;;;;;28.26;56.30;100726.25;5050877;28;20478;-82
2023/07/20 05:59:04;;;;;;;8.40;6.50;;;;;;;28.24;56.63;100729.00;5045792;28;20383;-81
2023/07/20 06:01:30;;;;;;;7.57;6.50;;;;;;;28.25;56.37;100729.88;5048507;28;20060;-83
2023/07/20 06:03:55;;;;;;;6.43;5.82;;;;;;;28.23;56.35;100733.47;5048144;28;20040;-83
2023/07/20 06:06:22;;;;;;;7.18;6.47;;;;;;;28.23;56.50;100740.63;5051188;28;20116;-83
2023/07/20 06:08:48;;;;;;;7.03;6.13;;;;;;;28.12;56.14;100710.44;5050921;28;20099;-82
2023/07/20 06:11:14;;;;;;;6.90;6.20;;;;;;;28.27;56.26;100733.41;5050135;28;20104;-83
2023/07/20 06:13:39;;;;;;;7.75;6.35;;;;;;;28.22;55.92;100714.72;5050719;28;20052;-83
2023/07/20 06:16:05;;;;;;;8.02;6.60;;;;;;;28.26;56.15;100731.63;5049755;28;20025;-82
2023/07/20 06:18:30;;;;;;;7.97;6.72;;;;;;;28.24;56.32;100726.31;5050492;28;20530;-82
2023/07/20 06:20:56;;;;;;;6.72;6.13;;;;;;;28.19;55.91;100712.06;5050173;28;20738;-82
2023/07/20 06:23:22;;;;;;;7.68;6.88;;;;;;;28.21;55.95;100721.91;5031286;28;20040;-82
2023/07/20 06:25:48;;;;;;;7.43;6.35;;;;;;;28.23;55.81;100722.72;5049237;28;20036;-82
2023/07/20 06:28:14;;;;;;;7.47;6.03;;;;;;;28.09;55.64;100695.28;5050513;28;20051;-82
2023/07/20 06:30:39;;;;;;;6.80;6.10;;;;;;;28.28;55.88;100719.97;5031033;28;20052;-83
2023/07/20 06:33:06;;;;;;;7.00;6.30;;;;;;;28.21;55.55;100710.25;5050830;28;20029;-82
2023/07/20 06:35:32;;;;;;;7.00;6.30;;;;;;;28.33;55.91;100728.81;5029244;28;20411;-82
2023/07/20 06:38:00;;;;;;;8.18;6.03;;;;;;;28.27;56.00;100747.72;5031600;28;20021;-83
2023/07/20 06:40:26;;;;;;;7.22;6.53;;;;;;;28.19;55.56;100734.47;5029390;28;20025;-83
2023/07/20 06:42:52;;;;;;;8.65;5.95;;;;;;;28.26;55.75;100743.28;5008779;28;20033;-82
2023/07/20 06:45:17;;;;;;;7.97;6.22;;;;;;;28.29;55.67;100745.03;5022784;28;20501;-83
2023/07/20 06:47:43;;;;;;;7.30;6.35;;;;;;;28.23;55.51;100740.63;5006665;28;20561;-82
2023/07/20 06:50:09;;;;;;;8.85;5.90;;;;;;;28.24;55.96;100745.13;5024050;28;20017;-83
2023/07/20 06:52:36;;;;;;;6.22;5.63;;;;;;;28.20;55.96;100735.34;5006166;28;20083;-82
2023/07/20 06:55:09;;;;;;;6.55;5.78;;;;;;;28.23;56.20;100751.38;5006507;28;20036;-85
2023/07/20 06:57:38;;;;;;;6.75;6.03;;;;;;;27.95;56.27;100694.66;5020380;28;20075;-83
2023/07/20 07:00:04;;;;;;;6.28;5.68;;;;;;;28.09;55.80;100731.97;5007162;28;20586;-84
2023/07/20 07:02:31;;;;;;;6.75;6.15;;;;;;;28.24;56.22;100742.44;5027364;28;20414;-84
2023/07/20 07:04:57;;;;;;;7.05;6.25;;;;;;;28.34;55.96;100756.53;5027005;28;20036;-84
2023/07/20 07:07:23;;;;;;;6.63;5.93;;;;;;;28.20;55.51;100743.41;5028138;28;20033;-84
2023/07/20 07:09:48;;;;;;;8.30;6.32;;;;;;;28.20;55.22;100738.91;5023231;28;20660;-84
2023/07/20 07:12:14;;;;;;;7.80;6.03;;;;;;;28.09;54.84;100727.50;5028129;28;20042;-84
2023/07/20 07:14:40;;;;;;;9.05;6.53;;;;;;;28.26;54.61;100747.75;5006876;28;20121;-84
2023/07/20 07:17:06;;;;;;;9.30;6.10;;;;;;;28.22;54.75;100738.88;5021700;28;20109;-83
2023/07/20 07:19:31;;;;;;;7.95;6.30;;;;;;;28.30;54.73;100746.78;4992512;28;20128;-82
2023/07/20 07:21:57;;;;;;;6.28;5.63;;;;;;;28.13;54.51;100707.75;5012672;28;20029;-81
2023/07/20 07:24:22;;;;;;;6.60;5.97;;;;;;;28.37;54.75;100746.63;5032672;28;20500;-81
2023/07/20 07:26:48;;;;;;;7.60;6.68;;;;;;;28.39;54.42;100741.25;5027282;28;20033;-82
2023/07/20 07:29:14;;;;;;;7.93;6.05;;;;;;;28.38;54.49;100732.28;5016133;28;20514;-82
2023/07/20 07:31:39;;;;;;;6.88;5.97;;;;;;;28.29;54.41;100724.41;5030193;28;20028;-82
2023/07/20 07:34:05;;;;;;;7.03;6.00;;;;;;;28.37;54.20;100721.59;5025047;28;20048;-83
2023/07/20 07:36:31;;;;;;;8.27;6.43;;;;;;;28.33;54.51;100731.50;5053571;28;20130;-83
2023/07/20 07:38:57;;;;;;;7.55;6.32;;;;;;;28.40;54.37;100735.81;5046625;28;20039;-83
2023/07/20 07:41:23;;;;;;;6.95;6.32;;;;;;;28.36;54.33;100722.47;5048453;28;20021;-82
2023/07/20 07:43:50;;;;;;;7.15;5.75;;;;;;;28.33;54.08;100707.31;5018000;28;20037;-81
2023/07/20 07:46:17;;;;;;;7.50;6.10;;;;;;;28.33;54.32;100712.69;5053945;28;20482;-82
2023/07/20 07:48:43;;;;;;;7.40;6.10;;;;;;;28.10;54.42;100666.63;5025283;28;20033;-81
2023/07/20 07:51:09;;;;;;;9.20;6.00;;;;;;;28.11;54.44;100669.28;5046412;28;20025;-82
2023/07/20 07:53:36;;;;;;;7.10;6.28;;;;;;;28.36;54.41;100701.00;5053711;28;20029;-82
2023/07/20 07:56:03;;;;;;;6.10;5.50;;;;;;;28.41;54.28;100705.38;5051312;28;20061;-81
2023/07/20 07:58:29;;;;;;;7.55;5.60;;;;;;;28.21;54.22;100668.19;5048599;28;20134;-82
2023/07/20 08:00:55;;;;;;;6.78;6.00;;;;;;;28.45;53.99;100710.66;5013938;28;20098;-84
2023/07/20 08:03:21;;;;;;;7.45;5.80;;;;;;;28.36;53.93;100696.53;5051013;28;20403;-82
2023/07/20 08:05:47;;;;;;;6.35;5.70;;;;;;;28.40;54.05;100694.66;5051896;28;20497;-82
2023/07/20 08:08:12;;;;;;;7.63;6.03;;;;;;;28.44;54.08;100715.16;5050253;28;20021;-83
2023/07/20 08:10:38;;;;;;;6.35;5.32;;;;;;;28.28;54.19;100690.44;5033219;28;20155;-83
2023/07/20 08:13:04;;;;;;;8.02;5.70;;;;;;;28.46;54.08;100720.50;5026945;28;20032;-84
2023/07/20 08:15:29;;;;;;;6.53;5.60;;;;;;;28.47;53.84;100720.47;5029799;28;20457;-85
2023/07/20 08:17:55;;;;;;;7.07;5.88;;;;;;;28.40;54.05;100708.94;5050723;28;20167;-84
2023/07/20 08:20:26;;;;;;;5.90;5.40;;;;;;;28.43;53.87;100711.59;5053077;28;20492;-83
2023/07/20 08:22:55;;;;;;;6.85;5.40;;;;;;;28.40;53.71;100703.59;5035394;28;20032;-83
2023/07/20 08:25:21;;;;;;;6.22;5.63;;;;;;;28.48;53.78;100714.19;5053074;28;20023;-81
2023/07/20 08:27:47;;;;;;;6.30;5.70;;;;;;;28.42;53.75;100717.00;5053482;28;20025;-84
2023/07/20 08:30:13;;;;;;;7.95;5.60;;;;;;;28.48;54.08;100722.22;5049515;28;20506;-84
2023/07/20 08:32:39;;;;;;;5.65;5.15;;;;;;;28.39;53.86;100706.31;5048095;28;20024;-80
2023/07/20 08:35:06;;;;;;;7.38;5.78;;;;;;;28.46;53.79;100716.00;5040935;28;20045;-82
2023/07/20 08:37:32;;;;;;;7.47;5.85;;;;;;;28.41;53.61;100707.19;5042191;28;20029;-82
2023/07/20 08:39:57;;;;;;;7.07;5.60;;;;;;;28.49;53.54;100720.47;5050296;28;20048;-81
2023/07/20 08:42:23;;;;;;;7.10;5.95;;;;;;;28.48;53.63;100724.03;5045432;28;20037;-80
2023/07/20 08:44:50;;;;;;;5.93;5.32;;;;;;;28.34;53.69;100701.06;5052150;28;20047;-83
2023/07/20 08:47:16;;;;;;;6.43;5.43;;;;;;;28.47;53.78;100716.88;5035691;28;20033;-82
2023/07/20 08:49:42;;;;;;;7.88;6.13;;;;;;;28.48;53.79;100724.91;5053779;28;20021;-83
2023/07/20 08:52:08;;;;;;;6.20;5.60;;;;;;;28.50;53.29;100720.44;5053474;28;20044;-82
2023/07/20 08:54:35;;;;;;;7.28;5.72;;;;;;;28.48;53.66;100714.19;5029063;28;20079;-82
2023/07/20 08:57:05;;;;;;;7.72;5.68;;;;;;;28.49;53.63;100724.06;5053495;28;20375;-85
2023/07/20 08:59:32;;;;;;;7.03;5.25;;;;;;;28.49;53.33;100718.69;5049806;28;20021;-82
2023/07/20 09:01:59;;;;;;;7.78;5.63;;;;;;;28.50;53.51;100715.06;5031882;28;20131;-82
2023/07/20 09:04:25;;;;;;;6.22;5.40;;;;;;;28.50;53.41;100716.88;5018816;28;20394;-82
2023/07/20 09:06:51;;;;;;;7.13;5.50;;;;;;;28.51;53.46;100718.63;5051758;28;20486;-86
2023/07/20 09:09:17;;;;;;;6.70;5.78;;;;;;;28.41;53.45;100697.31;5050931;28;20035;-82
2023/07/20 09:11:46;;;;;;;7.63;5.20;;;;;;;28.37;53.69;100684.84;5028385;28;20033;-81
2023/07/20 09:14:11;;;;;;;8.80;5.78;;;;;;;28.50;53.00;100703.44;5045235;28;20502;-82
2023/07/20 09:16:52;;;;;;;6.63;5.40;;;;;;;28.50;53.30;100709.69;5050604;28;20059;-81
2023/07/20 09:19:18;;;;;;;7.53;5.25;;;;;;;28.49;53.31;100702.56;5032712;28;20027;-84
2023/07/20 09:21:45;;;;;;;6.03;5.07;;;;;;;28.46;52.92;100697.22;5048321;28;20115;-83
2023/07/20 09:24:11;;;;;;;6.68;5.40;;;;;;;28.52;53.10;100701.59;5020627;28;20013;-81
2023/07/20 09:26:44;;;;;;;5.78;5.18;;;;;;;28.43;52.84;100681.16;5027472;28;20028;-81
2023/07/20 09:29:11;;;;;;;7.07;5.32;;;;;;;28.46;53.07;100693.66;5046262;28;20021;-82
2023/07/20 09:31:37;;;;;;;5.88;5.18;;;;;;;28.46;53.14;100693.66;5031105;28;20429;-81
2023/07/20 09:34:03;;;;;;;6.40;5.55;;;;;;;28.46;53.12;100691.84;5050876;28;20120;-81
2023/07/20 09:36:29;;;;;;;6.70;5.55;;;;;;;28.26;53.29;100659.13;5029188;28;20116;-81
2023/07/20 09:38:56;;;;;;;6.30;5.40;;;;;;;28.46;53.28;100688.28;5022262;28;20112;-81
2023/07/20 09:41:21;;;;;;;6.13;5.25;;;;;;;28.41;53.19;100689.25;5028769;28;20032;-83
2023/07/20 09:43:47;;;;;;;6.85;5.63;;;;;;;28.53;52.83;100698.91;5044854;28;20037;-81
2023/07/20 09:46:17;;;;;;;6.60;5.70;;;;;;;28.50;53.06;100698.06;5030702;28;20064;-82
2023/07/20 09:48:53;;;;;;;9.15;5.53;;;;;;;28.49;52.94;100699.88;5026081;28;20064;-82
2023/07/20 09:51:20;;;;;;;;;;;;;;;28.56;53.03;100703.31;5034446;28;20025;-81
2023/07/20 09:53:47;;;;;;;7.47;5.22;;;;;;;28.55;52.77;100702.41;5017430;28;20053;-82
2023/07/20 09:56:13;;;;;;;7.07;5.25;;;;;;;28.55;52.80;100693.47;5050619;28;20025;-82
2023/07/20 09:58:39;;;;;;;8.02;5.60;;;;;;;28.55;52.84;100698.84;5033238;28;20032;-80
2023/07/20 10:01:07;;;;;;;7.15;5.88;;;;;;;28.52;53.13;100691.75;5050907;28;20020;-82
2023/07/20 10:03:35;;;;;;;7.75;5.70;;;;;;;28.56;52.91;100687.19;5012134;28;20117;-80
2023/07/20 10:06:06;;;;;;;7.40;5.55;;;;;;;28.56;52.99;100690.75;5051739;28;20025;-81
2023/07/20 10:08:33;;;;;;;8.57;6.05;;;;;;;28.53;52.76;100679.19;5033189;28;20452;-84
2023/07/20 10:11:00;;;;;;;7.40;5.60;;;;;;;28.41;52.89;100653.44;5021282;28;20032;-81
2023/07/20 10:13:28;;;;;;;8.38;5.55;;;;;;;28.26;52.76;100622.44;5029646;28;20530;-80
2023/07/20 10:16:04;;;;;;;9.10;5.78;;;;;;;28.31;53.04;100620.53;5048048;28;20033;-81
2023/07/20 10:18:35;;;;;;;7.07;5.85;;;;;;;28.58;52.94;100671.94;5047391;28;20016;-81
2023/07/20 10:21:07;;;;;;;8.32;5.68;;;;;;;28.43;52.85;100632.81;5026842;28;20033;-84
2023/07/20 10:23:33;;;;;;;7.82;5.78;;;;;;;28.63;52.88;100660.13;5047079;28;20048;-82
2023/07/20 10:26:02;;;;;;;7.28;5.70;;;;;;;28.46;53.00;100640.78;5020126;28;20084;-81
2023/07/20 10:28:28;;;;;;;5.65;5.03;;;;;;;28.61;52.62;100661.09;5045657;28;20043;-84
2023/07/20 10:30:54;;;;;;;7.05;5.15;;;;;;;28.59;53.00;100652.19;5046016;28;20025;-82
2023/07/20 10:33:21;;;;;;;8.10;5.65;;;;;;;28.62;52.77;100657.50;5027222;28;20021;-81
2023/07/20 10:35:55;;;;;;;7.60;5.30;;;;;;;28.60;52.93;100649.47;5044843;28;20186;-82
2023/07/20 10:38:53;;;;;;;7.03;5.82;;;;;;;28.54;52.66;100635.28;5045807;28;20028;-83
2023/07/20 10:41:27;;;;;;;8.90;5.82;;;;;;;28.56;52.76;100638.84;5044504;28;20421;-85
2023/07/20 10:43:58;;;;;;;8.13;5.60;;;;;;;28.55;52.53;100631.69;5044080;28;20033;-81
2023/07/20 10:46:39;;;;;;;6.55;5.50;;;;;;;28.63;52.77;100648.50;5043864;28;20081;-81
2023/07/20 10:49:05;;;;;;;8.25;5.90;;;;;;;28.65;52.64;100641.31;5047506;28;20055;-82
2023/07/20 10:51:42;;;;;;;6.55;5.55;;;;;;;28.58;52.49;100627.13;5047125;28;20020;-82
2023/07/20 10:54:09;;;;;;;7.93;5.65;;;;;;;28.62;52.59;100631.50;5044774;28;20108;-82
2023/07/20 10:56:35;;;;;;;5.97;5.25;;;;;;;28.67;52.64;100638.59;5043957;28;20060;-82
2023/07/20 10:59:01;;;;;;;9.77;6.00;;;;;;;28.59;52.81;100628.00;5047933;28;20076;-82
2023/07/20 11:01:33;;;;;;;7.18;5.60;;;;;;;28.60;52.57;100629.78;5044317;28;20021;-82
2023/07/20 11:04:02;;;;;;;7.53;5.82;;;;;;;28.59;52.69;100619.94;5026327;28;20035;-82
2023/07/20 11:06:28;;;;;;;6.47;5.57;;;;;;;28.68;52.87;100629.59;5050545;28;20108;-82
2023/07/20 11:09:35;;;;;;;10.93;5.82;;;;;;;28.68;52.95;100624.22;5049582;28;20108;-81
2023/07/20 11:12:16;;;;;;;8.30;5.55;;;;;;;28.70;52.97;100631.34;4948650;28;20091;-80
2023/07/20 11:14:54;;;;;;;8.15;5.60;;;;;;;28.69;52.89;100626.00;4941486;28;20127;-81
2023/07/20 11:17:22;;;;;;;7.95;5.80;;;;;;;28.54;52.62;100603.94;5043626;28;20021;-82
2023/07/20 11:19:49;;;;;;;9.07;6.00;;;;;;;28.47;53.02;100585.25;5026067;28;20697;-81
2023/07/20 11:22:17;;;;;;;7.38;5.50;;;;;;;28.55;52.61;100589.56;5043457;28;20016;-79
2023/07/20 11:24:42;;;;;;;7.25;5.63;;;;;;;28.63;52.80;100592.09;5025934;28;20028;-81